PFTO

Tok Junction Airport

Airport
ICAO code
PFTO
IATA Code
6K8
Summary
ICAO Region
NAM
ICAO Territory
Location

, Alaska

Serving
Tok
Elevation
1639 ft
Coordinates
63° 19' 46" N , 142° 57' 13" W
Metar
PFTO 181556Z AUTO 00000KT 10SM OVC100 08/05 A2996 RMK AO2 SLP791 T00780050 $

Runways

Designator Length Width Surface Rops
7/25 765 15 ASPH-P No/No

Airport map

Aerial View

SKYbrary Partners:

Safety knowledge contributed by: